Portada
METAR-TAF:

METAR-TAF

Aeroports :

Taiyuan, Xina

latitud: 37-47N, longitud: 112-33E, altitud: 779 m

Observació

L'informe es va fer fa 24 minuts, a les 11:00 UTC
Vent 4 kt del Sud/Sud-Oest, variant entre Sud i Oest/Sud-Oest
Temperatura 29°C
Humitat 43%
Pressió 1008 hPa
Visibilitat 10 km o més
sense núvols per sota de 1500 mi sense presència de cumulonimbus.

METAR: ZBYN 171100Z 21002MPS 180V250 CAVOK 29/15 Q1008 NOSIG

Hora: 19:24 (11:24 UTC)

Pronòstic

L'informe es va fer fa 8 hores i 4 minuts, a les 03:20 UTC
Pronòstic vàlid del 17 a les 06 UTC al 18 a les 06 UTC
Vent 8 kt del Sud/Sud-Oest
Visibilitat: 6000 m
Temporalment
l' 17 a les 06 UTC al 17 a les 10 UTC
Escasses núvols a una alçada de 3000 ft, Cumulonimbus.
Núvols disperses a una alçada de 4000 ft
tempesta, pluja

TAF: ZBYN 170320Z 1706/1806 21004MPS 6000 NSC TX31/1707Z TN19/1722Z TEMPO 1706/1710 -TSRA FEW030CB SCT040

Observacions i pronòstics meteorològics de més de 4000 aeroports (METAR i TAF).

Les estacions disponibles són els punts grocs i vermells al mapa.

Posi el ratolí al punt desitjat per veure el nom de l'estació.

Feu clic per veure les observacions i els pronòstics meteorològics.

Per canviar el mapa: feu clic els botons verds amb una creu de color negre per apropar; al botó verd amb un guió per allunyar la imatge; o en les fletxes verdes per a mapes adjacents.


METAR-TAF: